createdAt,value
2018-04-26T00:00:05.647Z,100914.18
2018-04-26T00:02:37.095Z,100903.30
2018-04-26T00:05:10.214Z,100907.42
2018-04-26T00:07:40.511Z,100911.84
2018-04-26T00:10:11.019Z,100907.44
2018-04-26T00:12:41.901Z,100913.14
2018-04-26T00:15:17.895Z,100908.17
2018-04-26T00:17:49.001Z,100909.25
2018-04-26T00:20:19.867Z,100915.39
2018-04-26T00:22:52.195Z,100915.03
2018-04-26T00:25:29.383Z,100916.80
2018-04-26T00:27:59.837Z,100914.06
2018-04-26T00:30:30.792Z,100919.13
2018-04-26T00:33:02.137Z,100925.92
2018-04-26T00:35:33.011Z,100920.38
2018-04-26T00:38:03.769Z,100915.81
2018-04-26T00:40:33.970Z,100924.58
2018-04-26T00:43:05.000Z,100923.13
2018-04-26T00:45:36.517Z,100912.58
2018-04-26T00:48:10.764Z,100918.98
2018-04-26T00:50:43.900Z,100922.63
2018-04-26T00:53:14.750Z,100924.03
2018-04-26T00:58:23.361Z,100913.03
2018-04-26T01:00:53.988Z,100921.59
2018-04-26T01:03:24.336Z,100921.52
2018-04-26T01:06:01.378Z,100922.98
2018-04-26T01:08:31.557Z,100920.48
2018-04-26T01:11:02.332Z,100921.09
2018-04-26T01:13:33.144Z,100917.44
2018-04-26T01:16:04.224Z,100919.55
2018-04-26T01:18:35.297Z,100916.41
2018-04-26T01:21:06.234Z,100914.92
2018-04-26T01:23:36.924Z,100917.75
2018-04-26T01:26:11.534Z,100919.47
2018-04-26T01:28:42.807Z,100920.52
2018-04-26T01:31:44.014Z,100920.23
2018-04-26T01:34:14.340Z,100913.64
2018-04-26T01:37:52.785Z,100908.10
2018-04-26T01:40:22.963Z,100900.64
2018-04-26T01:42:53.498Z,100899.25
2018-04-26T01:45:32.010Z,100904.93
2018-04-26T01:48:02.834Z,100904.41
2018-04-26T01:50:33.575Z,100908.66
2018-04-26T01:53:03.841Z,100906.31
2018-04-26T01:55:34.698Z,100905.48
2018-04-26T01:58:05.660Z,100899.37
2018-04-26T02:00:37.382Z,100893.66
2018-04-26T02:03:08.226Z,100897.06
2018-04-26T02:05:39.568Z,100896.83
2018-04-26T02:08:11.149Z,100899.14
2018-04-26T02:10:42.182Z,100907.23
2018-04-26T02:13:13.295Z,100893.80
2018-04-26T02:15:43.924Z,100908.02
2018-04-26T02:18:16.803Z,100912.39
2018-04-26T02:20:48.091Z,100912.16
2018-04-26T02:23:18.470Z,100905.20
2018-04-26T02:25:48.554Z,100904.23
2018-04-26T02:28:18.892Z,100904.33
2018-04-26T02:30:49.263Z,100909.16
2018-04-26T02:33:20.121Z,100904.78
2018-04-26T02:35:50.602Z,100909.55
2018-04-26T02:38:21.029Z,100914.18
2018-04-26T02:40:51.346Z,100916.42
2018-04-26T02:43:21.870Z,100916.53
2018-04-26T02:45:52.176Z,100919.53
2018-04-26T02:48:26.595Z,100913.27
2018-04-26T02:50:56.964Z,100912.16
2018-04-26T02:53:27.040Z,100911.25
2018-04-26T02:55:58.009Z,100912.06
2018-04-26T02:58:28.518Z,100907.14
2018-04-26T03:00:59.651Z,100914.27
2018-04-26T03:03:30.464Z,100911.73
2018-04-26T03:06:02.025Z,100910.39
2018-04-26T03:08:32.297Z,100911.89
2018-04-26T03:11:03.479Z,100909.49
2018-04-26T03:13:34.214Z,100913.42
2018-04-26T03:16:06.341Z,100905.48
2018-04-26T03:18:37.054Z,100902.89
2018-04-26T03:21:07.231Z,100904.72
2018-04-26T03:23:37.561Z,100908.44
2018-04-26T03:26:08.099Z,100911.59
2018-04-26T03:28:38.332Z,100913.91
2018-04-26T03:31:09.079Z,100915.76
2018-04-26T03:33:39.123Z,100916.96
2018-04-26T03:36:09.228Z,100922.52
2018-04-26T03:38:39.822Z,100928.52
2018-04-26T03:41:10.996Z,100929.00
2018-04-26T03:43:41.173Z,100930.61
2018-04-26T03:46:12.341Z,100932.44
2018-04-26T03:48:49.111Z,100934.43
2018-04-26T03:51:19.645Z,100929.73
2018-04-26T03:53:49.942Z,100935.06
2018-04-26T03:56:20.798Z,100936.61
2018-04-26T03:58:51.740Z,100936.10
2018-04-26T04:01:32.919Z,100941.79
2018-04-26T04:04:14.438Z,100941.85
2018-04-26T04:06:44.862Z,100927.33
2018-04-26T04:09:15.114Z,100933.10
2018-04-26T04:11:46.251Z,100928.89
2018-04-26T04:14:17.129Z,100925.09
2018-04-26T04:16:48.455Z,100943.62
2018-04-26T04:19:19.041Z,100947.09
2018-04-26T04:21:51.131Z,100946.73
2018-04-26T04:24:21.855Z,100948.70
2018-04-26T04:26:52.206Z,100950.95
2018-04-26T04:29:23.414Z,100954.61
2018-04-26T04:31:53.636Z,100965.48
2018-04-26T04:34:25.643Z,100964.14
2018-04-26T04:36:56.003Z,100969.35
2018-04-26T04:39:26.274Z,100975.61
2018-04-26T04:41:56.672Z,100978.22
2018-04-26T04:44:28.831Z,100979.61
2018-04-26T04:47:00.030Z,100982.16
2018-04-26T04:49:35.891Z,100984.05
2018-04-26T04:52:06.803Z,100988.47
2018-04-26T04:54:41.573Z,100985.38
2018-04-26T04:57:13.938Z,100985.24
2018-04-26T04:59:45.484Z,100993.59
2018-04-26T05:02:16.127Z,100996.34
2018-04-26T05:04:47.943Z,101003.09
2018-04-26T05:07:18.573Z,100993.16
2018-04-26T05:09:48.864Z,100999.22
2018-04-26T05:12:19.256Z,100987.83
2018-04-26T05:14:50.856Z,100997.10
2018-04-26T05:17:23.969Z,100981.28
2018-04-26T05:19:54.710Z,101001.30
2018-04-26T05:22:33.111Z,101010.45
2018-04-26T05:25:06.685Z,101015.17
2018-04-26T05:27:37.604Z,101016.92
2018-04-26T05:30:09.582Z,101024.34
2018-04-26T05:32:43.635Z,101023.86
2018-04-26T05:35:15.152Z,101015.23
2018-04-26T05:37:47.672Z,101024.22
2018-04-26T05:40:19.033Z,101030.83
2018-04-26T05:42:54.157Z,101029.20
2018-04-26T05:45:25.230Z,101027.11
2018-04-26T05:50:40.910Z,101038.83
2018-04-26T05:53:11.734Z,101040.47
2018-04-26T05:55:43.197Z,101037.87
2018-04-26T05:58:13.930Z,101028.84
2018-04-26T06:00:45.421Z,101038.69
2018-04-26T06:03:18.495Z,101046.05
2018-04-26T06:05:52.846Z,101027.31
2018-04-26T06:08:24.731Z,101048.05
2018-04-26T06:10:58.436Z,101053.81
2018-04-26T06:13:29.237Z,101051.89
2018-04-26T06:15:59.966Z,101058.14
2018-04-26T06:18:30.368Z,101056.80
2018-04-26T06:21:01.099Z,101058.44
2018-04-26T06:23:33.428Z,101062.81
2018-04-26T06:26:03.962Z,101057.11
2018-04-26T06:28:35.895Z,101063.55
2018-04-26T06:31:06.968Z,101079.58
2018-04-26T06:33:38.071Z,101076.96
2018-04-26T06:36:13.217Z,101081.55
2018-04-26T06:38:46.308Z,101087.78
2018-04-26T06:41:17.291Z,101093.06
2018-04-26T06:43:47.863Z,101094.14
2018-04-26T06:46:19.949Z,101093.39
2018-04-26T06:48:52.988Z,101094.50
2018-04-26T06:51:23.904Z,101103.78
2018-04-26T06:53:54.368Z,101107.98
2018-04-26T06:56:24.963Z,101112.97
2018-04-26T06:58:55.601Z,101111.92
2018-04-26T07:01:27.371Z,101116.67
2018-04-26T07:04:00.440Z,101109.84
2018-04-26T07:06:34.062Z,101120.12
2018-04-26T07:09:27.001Z,101119.78
2018-04-26T07:12:07.290Z,101125.16
2018-04-26T07:14:45.841Z,101122.41
2018-04-26T07:17:19.996Z,101126.91
2018-04-26T07:19:50.589Z,101129.29
2018-04-26T07:22:22.668Z,101133.55
2018-04-26T07:24:52.880Z,101135.05
2018-04-26T07:27:23.799Z,101134.20
2018-04-26T07:29:54.869Z,101135.52
2018-04-26T07:32:28.591Z,101133.83
2018-04-26T07:35:00.796Z,101133.70
2018-04-26T07:37:31.371Z,101135.16
2018-04-26T07:40:08.984Z,101138.65
2018-04-26T07:42:41.774Z,101125.07
2018-04-26T07:45:14.789Z,101142.42
2018-04-26T07:47:45.155Z,101140.05
2018-04-26T07:50:18.636Z,101140.30
2018-04-26T07:52:57.555Z,101140.61
2018-04-26T07:55:31.510Z,101152.88
2018-04-26T07:58:05.295Z,101140.22
2018-04-26T08:00:35.790Z,101119.92
2018-04-26T08:03:08.277Z,101139.56
2018-04-26T08:05:41.415Z,101145.02
2018-04-26T08:08:12.865Z,101128.40
2018-04-26T08:10:50.101Z,101148.58
2018-04-26T08:18:06.069Z,101151.62
2018-04-26T08:20:42.191Z,101160.13
2018-04-26T08:23:14.056Z,101152.57
2018-04-26T08:25:46.663Z,101154.52
2018-04-26T08:28:18.157Z,101152.39
2018-04-26T08:30:48.725Z,101167.38
2018-04-26T08:33:19.840Z,101167.48
2018-04-26T08:35:50.654Z,101170.38
2018-04-26T08:38:23.558Z,101175.67
2018-04-26T08:40:54.261Z,101180.60
2018-04-26T08:43:36.323Z,101177.88
2018-04-26T08:46:14.650Z,101183.60
2018-04-26T08:48:58.697Z,101198.97
2018-04-26T08:51:32.636Z,101201.80
2018-04-26T08:54:04.111Z,101197.28
2018-04-26T08:56:35.288Z,101198.80
2018-04-26T08:59:10.167Z,101202.70
2018-04-26T09:01:49.795Z,101207.59
2018-04-26T09:04:31.593Z,101197.03
2018-04-26T09:07:09.924Z,101212.81
2018-04-26T09:09:47.159Z,101198.38
2018-04-26T09:12:22.211Z,101207.77
2018-04-26T09:14:53.355Z,101203.86
2018-04-26T09:17:26.176Z,101189.89
2018-04-26T09:19:59.433Z,101191.27
2018-04-26T09:22:34.833Z,101204.66
2018-04-26T09:25:10.248Z,101209.39
2018-04-26T09:27:42.589Z,101215.00
2018-04-26T09:30:19.443Z,101210.77
2018-04-26T09:32:52.620Z,101217.36
2018-04-26T09:35:46.245Z,101223.31
2018-04-26T09:38:18.941Z,101230.92
2018-04-26T09:40:50.650Z,101225.94
2018-04-26T09:43:22.900Z,101224.36
2018-04-26T09:46:08.408Z,101226.22
2018-04-26T09:48:48.968Z,101228.30
2018-04-26T09:51:23.742Z,101221.67
2018-04-26T09:54:00.738Z,101222.19
2018-04-26T09:56:32.503Z,101230.53
2018-04-26T09:59:13.621Z,101225.62
2018-04-26T10:01:47.281Z,101225.27
2018-04-26T10:04:18.206Z,101223.03
2018-04-26T10:06:52.975Z,101225.95
2018-04-26T10:09:24.244Z,101219.89
2018-04-26T10:11:54.546Z,101223.05
2018-04-26T10:14:24.944Z,101222.80
2018-04-26T10:16:59.583Z,101218.32
2018-04-26T10:19:32.540Z,101229.52
2018-04-26T10:22:10.728Z,101224.70
2018-04-26T10:24:40.935Z,101230.17
2018-04-26T10:27:13.229Z,101236.22
2018-04-26T10:29:44.750Z,101226.18
2018-04-26T10:32:15.964Z,101225.35
2018-04-26T10:34:46.561Z,101229.47
2018-04-26T10:37:33.009Z,101230.31
2018-04-26T10:40:09.146Z,101226.13
2018-04-26T10:42:41.788Z,101239.33
2018-04-26T10:45:16.695Z,101238.90
2018-04-26T10:47:51.336Z,101243.69
2018-04-26T10:50:24.251Z,101249.19
2018-04-26T10:52:55.984Z,101247.91
2018-04-26T10:55:29.204Z,101249.66
2018-04-26T10:58:03.239Z,101250.55
2018-04-26T11:00:43.967Z,101239.72
2018-04-26T11:03:35.322Z,101244.16
2018-04-26T11:06:06.287Z,101242.23
2018-04-26T11:08:37.550Z,101236.87
2018-04-26T11:11:10.816Z,101234.05
2018-04-26T11:13:41.081Z,101233.47
2018-04-26T11:16:19.484Z,101234.51
2018-04-26T11:18:51.002Z,101238.36
2018-04-26T11:21:21.792Z,101230.95
2018-04-26T11:23:52.705Z,101234.94
2018-04-26T11:26:25.866Z,101237.81
2018-04-26T11:28:56.848Z,101237.49
2018-04-26T11:31:41.204Z,101235.95
2018-04-26T11:34:11.882Z,101235.11
2018-04-26T11:36:42.584Z,101234.18
2018-04-26T11:39:15.064Z,101233.83
2018-04-26T11:41:45.850Z,101221.98
2018-04-26T11:44:16.975Z,101230.88
2018-04-26T11:46:51.855Z,101222.06
2018-04-26T11:49:23.267Z,101225.66
2018-04-26T11:51:53.523Z,101227.91
2018-04-26T11:54:27.814Z,101233.41
2018-04-26T11:56:58.706Z,101232.67
2018-04-26T11:59:38.606Z,101233.98
2018-04-26T12:02:09.971Z,101228.80
2018-04-26T12:04:43.032Z,101238.50
2018-04-26T12:07:26.628Z,101234.19
2018-04-26T12:09:57.650Z,101234.29
2018-04-26T12:12:29.205Z,101220.03
2018-04-26T12:15:02.953Z,101226.45
2018-04-26T12:17:34.724Z,101216.77
2018-04-26T12:20:05.965Z,101230.17
2018-04-26T12:22:38.894Z,101223.47
2018-04-26T12:25:10.970Z,101229.87
2018-04-26T12:27:41.164Z,101231.62
2018-04-26T12:30:22.313Z,101238.92
2018-04-26T12:32:59.714Z,101208.96
2018-04-26T12:35:35.990Z,101229.91
2018-04-26T12:38:14.914Z,101219.83
2018-04-26T12:40:46.210Z,101229.03
2018-04-26T12:43:20.536Z,101217.33
2018-04-26T12:45:51.351Z,101226.35
2018-04-26T12:48:30.728Z,101214.38
2018-04-26T12:51:01.544Z,101218.98
2018-04-26T12:53:32.579Z,101214.35
2018-04-26T12:56:15.122Z,101224.02
2018-04-26T12:58:47.046Z,101224.06
2018-04-26T13:04:18.469Z,101211.80
2018-04-26T13:06:58.187Z,101215.51
2018-04-26T13:09:31.712Z,101225.72
2018-04-26T13:12:09.242Z,101222.41
2018-04-26T13:14:41.995Z,101227.30
2018-04-26T13:17:19.399Z,101225.05
2018-04-26T13:19:51.080Z,101231.53
2018-04-26T13:22:21.528Z,101234.35
2018-04-26T13:24:51.798Z,101243.63
2018-04-26T13:27:21.944Z,101239.08
2018-04-26T13:29:54.929Z,101274.03
2018-04-26T13:35:12.336Z,101295.56
2018-04-26T13:37:42.769Z,101288.81
2018-04-26T13:40:24.515Z,101291.83
2018-04-26T13:42:54.786Z,101261.02
2018-04-26T13:45:30.986Z,101250.61
2018-04-26T13:48:01.975Z,101247.12
2018-04-26T13:50:33.228Z,101261.38
2018-04-26T13:53:03.591Z,101256.12
2018-04-26T13:55:35.542Z,101260.11
2018-04-26T13:58:08.309Z,101258.38
2018-04-26T14:00:40.353Z,101251.30
2018-04-26T14:03:10.843Z,101237.70
2018-04-26T14:05:49.812Z,101249.32
2018-04-26T14:08:25.770Z,101229.50
2018-04-26T14:10:56.586Z,101243.73
2018-04-26T14:13:26.933Z,101226.81
2018-04-26T14:15:57.918Z,101222.26
2018-04-26T14:18:28.648Z,101229.63
2018-04-26T14:20:59.011Z,101222.64
2018-04-26T14:23:29.481Z,101225.05
2018-04-26T14:26:02.510Z,101229.66
2018-04-26T14:28:33.079Z,101231.88
2018-04-26T14:31:04.067Z,101225.82
2018-04-26T14:33:34.360Z,101223.86
2018-04-26T14:36:05.208Z,101221.47
2018-04-26T14:38:37.292Z,101233.20
2018-04-26T14:41:09.455Z,101216.53
2018-04-26T14:43:40.036Z,101231.77
2018-04-26T14:46:10.691Z,101217.79
2018-04-26T14:48:44.104Z,101214.67
2018-04-26T14:51:15.200Z,101223.91
2018-04-26T14:53:46.373Z,101217.95
2018-04-26T14:56:16.578Z,101213.14
2018-04-26T14:58:52.708Z,101219.44
2018-04-26T15:01:26.006Z,101220.55
2018-04-26T15:04:00.319Z,101218.90
2018-04-26T15:06:32.129Z,101212.92
2018-04-26T15:09:04.487Z,101218.03
2018-04-26T15:11:35.111Z,101220.53
2018-04-26T15:14:05.669Z,101208.77
2018-04-26T15:16:37.882Z,101216.97
2018-04-26T15:19:09.535Z,101202.59
2018-04-26T15:21:41.710Z,101208.52
2018-04-26T15:24:12.716Z,101210.06
2018-04-26T15:26:43.356Z,101206.97
2018-04-26T15:29:13.897Z,101206.28
2018-04-26T15:31:44.792Z,101192.30
2018-04-26T15:34:16.039Z,101215.75
2018-04-26T15:36:46.559Z,101213.59
2018-04-26T15:39:19.044Z,101223.61
2018-04-26T15:41:49.338Z,101215.34
2018-04-26T15:44:19.727Z,101216.03
2018-04-26T15:46:50.507Z,101219.63
2018-04-26T15:49:22.413Z,101208.45
2018-04-26T15:51:55.040Z,101212.31
2018-04-26T15:54:38.241Z,101213.31
2018-04-26T15:57:23.492Z,101214.66
2018-04-26T16:00:07.960Z,101213.81
2018-04-26T16:04:50.702Z,101200.13
2018-04-26T16:07:34.962Z,101205.09
2018-04-26T16:12:20.617Z,101192.98
2018-04-26T16:15:04.013Z,101189.13
2018-04-26T16:18:47.668Z,101203.56
2018-04-26T16:23:37.191Z,101201.91
2018-04-26T16:28:25.246Z,101201.40
2018-04-26T16:31:10.443Z,101194.48
2018-04-26T16:33:52.870Z,101191.30
2018-04-26T16:38:37.873Z,101200.11
2018-04-26T16:41:09.948Z,101196.55
2018-04-26T16:43:41.816Z,101190.48
2018-04-26T16:46:12.285Z,101187.80
2018-04-26T16:48:43.808Z,101191.81
2018-04-26T16:51:14.129Z,101203.72
2018-04-26T16:53:44.980Z,101224.23
2018-04-26T16:56:26.117Z,101239.19
2018-04-26T16:58:56.676Z,101226.95
2018-04-26T17:01:27.736Z,101217.50
2018-04-26T17:04:00.261Z,101220.94
2018-04-26T17:06:31.188Z,101208.80
2018-04-26T17:09:01.688Z,101184.09
2018-04-26T17:11:32.722Z,101189.14
2018-04-26T17:14:02.986Z,101197.84
2018-04-26T17:16:33.512Z,101187.89
2018-04-26T17:19:04.972Z,101202.11
2018-04-26T17:21:38.199Z,101208.32
2018-04-26T17:24:09.891Z,101212.20
2018-04-26T17:26:40.534Z,101214.70
2018-04-26T17:29:11.516Z,101198.33
2018-04-26T17:31:42.818Z,101228.86
2018-04-26T17:34:14.092Z,101234.33
2018-04-26T17:36:44.689Z,101240.09
2018-04-26T17:39:16.846Z,101245.80
2018-04-26T17:41:48.686Z,101248.95
2018-04-26T17:44:19.644Z,101250.64
2018-04-26T17:46:50.399Z,101241.08
2018-04-26T17:49:20.580Z,101246.09
2018-04-26T17:51:54.975Z,101237.69
2018-04-26T17:54:26.244Z,101240.16
2018-04-26T17:56:58.939Z,101244.36
2018-04-26T17:59:31.720Z,101247.51
2018-04-26T18:02:02.456Z,101243.55
2018-04-26T18:04:33.669Z,101249.73
2018-04-26T18:07:03.966Z,101245.19
2018-04-26T18:09:34.302Z,101228.56
2018-04-26T18:12:05.749Z,101236.69
2018-04-26T18:14:35.961Z,101250.41
2018-04-26T18:17:07.577Z,101248.56
2018-04-26T18:19:37.951Z,101244.72
2018-04-26T18:22:10.038Z,101249.05
2018-04-26T18:24:41.003Z,101247.73
2018-04-26T18:27:11.442Z,101246.72
2018-04-26T18:29:41.958Z,101240.16
2018-04-26T18:32:13.164Z,101250.09
2018-04-26T18:34:43.402Z,101247.41
2018-04-26T18:37:17.511Z,101253.88
2018-04-26T18:39:48.169Z,101258.47
2018-04-26T18:42:18.660Z,101261.07
2018-04-26T18:44:50.166Z,101266.53
2018-04-26T18:47:21.517Z,101265.64
2018-04-26T18:49:52.630Z,101254.81
2018-04-26T18:52:22.988Z,101268.27
2018-04-26T18:54:56.642Z,101263.44
2018-04-26T18:57:28.046Z,101261.85
2018-04-26T18:59:58.589Z,101264.53
2018-04-26T19:02:29.096Z,101265.89
2018-04-26T19:04:59.537Z,101275.07
2018-04-26T19:07:30.938Z,101275.56
2018-04-26T19:10:01.906Z,101270.91
2018-04-26T19:12:32.286Z,101273.13
2018-04-26T19:15:05.175Z,101284.63
2018-04-26T19:17:38.311Z,101287.05
2018-04-26T19:20:09.317Z,101289.27
2018-04-26T19:22:42.540Z,101290.91
2018-04-26T19:25:13.779Z,101287.24
2018-04-26T19:27:44.121Z,101286.69
2018-04-26T19:30:18.609Z,101282.23
2018-04-26T19:32:51.731Z,101286.12
2018-04-26T19:35:22.249Z,101283.72
2018-04-26T19:37:52.800Z,101283.52
2018-04-26T19:40:23.047Z,101289.98
2018-04-26T19:42:54.231Z,101282.66
2018-04-26T19:45:25.777Z,101285.25
2018-04-26T19:47:56.599Z,101286.50
2018-04-26T19:50:30.119Z,101290.41
2018-04-26T19:53:02.657Z,101302.16
2018-04-26T19:55:34.382Z,101289.12
2018-04-26T19:58:07.357Z,101284.41
2018-04-26T20:00:38.629Z,101288.09
2018-04-26T20:03:09.257Z,101281.70
2018-04-26T20:05:40.021Z,101284.27
2018-04-26T20:08:10.579Z,101282.54
2018-04-26T20:10:40.883Z,101284.86
2018-04-26T20:13:12.864Z,101274.00
2018-04-26T20:15:43.537Z,101277.01
2018-04-26T20:18:14.648Z,101271.89
2018-04-26T20:20:46.666Z,101262.36
2018-04-26T20:23:17.163Z,101274.84
2018-04-26T20:25:58.997Z,101271.63
2018-04-26T20:28:31.288Z,101272.03
2018-04-26T20:31:03.857Z,101273.58
2018-04-26T20:38:50.809Z,101271.37
2018-04-26T20:41:21.113Z,101231.09
2018-04-26T20:43:52.220Z,101268.89
2018-04-26T20:46:23.592Z,101274.17
2018-04-26T20:48:55.064Z,101264.60
2018-04-26T20:51:25.883Z,101258.43
2018-04-26T20:53:56.218Z,101267.64
2018-04-26T20:56:28.200Z,101268.64
2018-04-26T20:58:58.585Z,101266.05
2018-04-26T21:01:29.984Z,101265.34
2018-04-26T21:04:01.947Z,101261.89
2018-04-26T21:06:33.424Z,101252.40
2018-04-26T21:09:04.811Z,101259.83
2018-04-26T21:11:39.093Z,101266.39
2018-04-26T21:14:20.011Z,101264.98
2018-04-26T21:19:42.798Z,101259.14
2018-04-26T21:22:14.028Z,101261.21
2018-04-26T21:24:46.203Z,101254.09
2018-04-26T21:27:18.150Z,101258.34
2018-04-26T21:29:48.913Z,101262.29
2018-04-26T21:32:20.054Z,101260.96
2018-04-26T21:34:50.944Z,101256.17
2018-04-26T21:37:22.374Z,101261.98
2018-04-26T21:39:53.220Z,101261.63
2018-04-26T21:42:24.078Z,101262.16
2018-04-26T21:44:54.911Z,101266.88
2018-04-26T21:47:26.048Z,101263.70
2018-04-26T21:50:05.494Z,101266.84
2018-04-26T21:55:34.811Z,101269.91
2018-04-26T21:58:10.689Z,101268.78
2018-04-26T22:00:46.571Z,101268.41
2018-04-26T22:03:17.765Z,101258.44
2018-04-26T22:05:53.018Z,101266.70
2018-04-26T22:08:23.860Z,101265.00
2018-04-26T22:10:55.259Z,101261.13
2018-04-26T22:13:25.871Z,101258.94
2018-04-26T22:15:57.785Z,101251.81
2018-04-26T22:18:29.134Z,101260.20
2018-04-26T22:21:00.245Z,101259.54
2018-04-26T22:23:31.141Z,101254.56
2018-04-26T22:26:02.200Z,101253.52
2018-04-26T22:28:32.967Z,101256.79
2018-04-26T22:31:04.853Z,101257.46
2018-04-26T22:33:36.405Z,101255.41
2018-04-26T22:36:07.082Z,101259.86
2018-04-26T22:38:38.628Z,101265.17
2018-04-26T22:41:11.107Z,101270.64
2018-04-26T22:43:50.093Z,101264.39
2018-04-26T22:46:21.090Z,101265.47
2018-04-26T22:48:52.322Z,101260.96
2018-04-26T22:51:23.641Z,101259.20
2018-04-26T22:53:54.945Z,101259.14
2018-04-26T22:56:26.278Z,101258.38
2018-04-26T22:59:05.228Z,101257.25
2018-04-26T23:01:36.826Z,101264.15
2018-04-26T23:04:08.795Z,101267.03
2018-04-26T23:06:39.255Z,101263.38
2018-04-26T23:09:11.131Z,101270.66
2018-04-26T23:11:41.586Z,101267.53
2018-04-26T23:14:11.916Z,101270.05
2018-04-26T23:16:43.550Z,101262.19
2018-04-26T23:19:16.464Z,101266.44
2018-04-26T23:21:49.602Z,101264.73
2018-04-26T23:24:21.397Z,101257.25
2018-04-26T23:29:29.421Z,101251.46
2018-04-26T23:32:00.540Z,101251.30
2018-04-26T23:34:32.030Z,101252.61
2018-04-26T23:37:10.836Z,101252.34
2018-04-26T23:39:44.754Z,101249.50
2018-04-26T23:42:17.587Z,101255.77
2018-04-26T23:44:51.276Z,101250.67
2018-04-26T23:47:22.484Z,101252.12
2018-04-26T23:49:53.030Z,101250.88
2018-04-26T23:52:23.776Z,101246.51
2018-04-26T23:54:55.620Z,101242.64
2018-04-26T23:57:26.339Z,101241.89
2018-04-26T23:59:56.579Z,101242.55
